sensor_id;sensor_type;location;lat;lon;timestamp;temperature;humidity
14884;DHT22;7534;50.762;7.000;2023-08-24T00:01:22;19.30;99.90
14884;DHT22;7534;50.762;7.000;2023-08-24T00:03:48;19.20;99.90
14884;DHT22;7534;50.762;7.000;2023-08-24T00:06:14;19.10;99.90
14884;DHT22;7534;50.762;7.000;2023-08-24T00:08:40;19.10;99.90
14884;DHT22;7534;50.762;7.000;2023-08-24T00:11:06;19.10;99.90
14884;DHT22;7534;50.762;7.000;2023-08-24T00:13:33;19.10;99.90
14884;DHT22;7534;50.762;7.000;2023-08-24T00:15:59;19.10;99.90
14884;DHT22;7534;50.762;7.000;2023-08-24T00:18:25;19.10;99.90
14884;DHT22;7534;50.762;7.000;2023-08-24T00:20:51;19.10;99.90
14884;DHT22;7534;50.762;7.000;2023-08-24T00:23:17;19.10;99.90
14884;DHT22;7534;50.762;7.000;2023-08-24T00:25:43;19.00;99.90
14884;DHT22;7534;50.762;7.000;2023-08-24T00:28:09;19.10;99.90
14884;DHT22;7534;50.762;7.000;2023-08-24T00:30:36;19.10;99.90
14884;DHT22;7534;50.762;7.000;2023-08-24T00:33:02;19.00;99.90
14884;DHT22;7534;50.762;7.000;2023-08-24T00:35:28;19.00;99.90
14884;DHT22;7534;50.762;7.000;2023-08-24T00:37:54;19.00;99.90
14884;DHT22;7534;50.762;7.000;2023-08-24T00:40:19;18.90;99.90
14884;DHT22;7534;50.762;7.000;2023-08-24T00:42:45;18.90;99.90
14884;DHT22;7534;50.762;7.000;2023-08-24T00:45:12;18.80;99.90
14884;DHT22;7534;50.762;7.000;2023-08-24T00:47:40;18.90;99.90
14884;DHT22;7534;50.762;7.000;2023-08-24T00:50:08;19.00;99.90
14884;DHT22;7534;50.762;7.000;2023-08-24T00:52:36;18.90;99.90
14884;DHT22;7534;50.762;7.000;2023-08-24T00:55:05;18.90;99.90
14884;DHT22;7534;50.762;7.000;2023-08-24T00:57:32;18.90;99.90
14884;DHT22;7534;50.762;7.000;2023-08-24T01:00:05;18.90;99.90
14884;DHT22;7534;50.762;7.000;2023-08-24T01:02:34;18.90;99.90
14884;DHT22;7534;50.762;7.000;2023-08-24T01:04:59;18.80;99.90
14884;DHT22;7534;50.762;7.000;2023-08-24T01:07:26;18.90;99.90
14884;DHT22;7534;50.762;7.000;2023-08-24T01:09:51;18.80;99.90
14884;DHT22;7534;50.762;7.000;2023-08-24T01:12:28;18.80;99.90
14884;DHT22;7534;50.762;7.000;2023-08-24T01:15:21;18.80;99.90
14884;DHT22;7534;50.762;7.000;2023-08-24T01:18:11;18.70;99.90
14884;DHT22;7534;50.762;7.000;2023-08-24T01:20:40;18.70;99.90
14884;DHT22;7534;50.762;7.000;2023-08-24T01:23:32;18.70;99.90
14884;DHT22;7534;50.762;7.000;2023-08-24T01:26:11;18.70;99.90
14884;DHT22;7534;50.762;7.000;2023-08-24T01:28:39;18.70;99.90
14884;DHT22;7534;50.762;7.000;2023-08-24T01:31:07;18.80;99.90
14884;DHT22;7534;50.762;7.000;2023-08-24T01:33:33;18.80;99.90
14884;DHT22;7534;50.762;7.000;2023-08-24T01:35:59;18.70;99.90
14884;DHT22;7534;50.762;7.000;2023-08-24T01:38:25;18.70;99.90
14884;DHT22;7534;50.762;7.000;2023-08-24T01:41:09;18.80;99.90
14884;DHT22;7534;50.762;7.000;2023-08-24T01:43:39;18.80;99.90
14884;DHT22;7534;50.762;7.000;2023-08-24T01:46:07;18.80;99.90
14884;DHT22;7534;50.762;7.000;2023-08-24T01:48:35;18.70;99.90
14884;DHT22;7534;50.762;7.000;2023-08-24T01:51:02;18.70;99.90
14884;DHT22;7534;50.762;7.000;2023-08-24T01:53:30;18.70;99.90
14884;DHT22;7534;50.762;7.000;2023-08-24T01:55:57;18.70;99.90
14884;DHT22;7534;50.762;7.000;2023-08-24T01:58:22;18.70;99.90
14884;DHT22;7534;50.762;7.000;2023-08-24T02:00:49;18.70;99.90
14884;DHT22;7534;50.762;7.000;2023-08-24T02:03:14;18.80;99.90
14884;DHT22;7534;50.762;7.000;2023-08-24T02:05:40;18.70;99.90
14884;DHT22;7534;50.762;7.000;2023-08-24T02:08:06;18.60;99.90
14884;DHT22;7534;50.762;7.000;2023-08-24T02:10:31;18.60;99.90
14884;DHT22;7534;50.762;7.000;2023-08-24T02:12:59;18.50;99.90
14884;DHT22;7534;50.762;7.000;2023-08-24T02:15:25;18.60;99.90
14884;DHT22;7534;50.762;7.000;2023-08-24T02:17:55;18.60;99.90
14884;DHT22;7534;50.762;7.000;2023-08-24T02:20:21;18.60;99.90
14884;DHT22;7534;50.762;7.000;2023-08-24T02:22:46;18.60;99.90
14884;DHT22;7534;50.762;7.000;2023-08-24T02:25:12;18.60;99.90
14884;DHT22;7534;50.762;7.000;2023-08-24T02:27:38;18.60;99.90
14884;DHT22;7534;50.762;7.000;2023-08-24T02:30:04;18.80;99.90
14884;DHT22;7534;50.762;7.000;2023-08-24T02:32:30;18.80;99.90
14884;DHT22;7534;50.762;7.000;2023-08-24T02:34:57;18.80;99.90
14884;DHT22;7534;50.762;7.000;2023-08-24T02:37:22;18.90;99.90
14884;DHT22;7534;50.762;7.000;2023-08-24T02:39:48;18.90;99.90
14884;DHT22;7534;50.762;7.000;2023-08-24T02:42:14;19.00;99.90
14884;DHT22;7534;50.762;7.000;2023-08-24T02:44:39;18.90;99.90
14884;DHT22;7534;50.762;7.000;2023-08-24T02:47:06;19.00;99.90
14884;DHT22;7534;50.762;7.000;2023-08-24T02:49:31;19.00;99.90
14884;DHT22;7534;50.762;7.000;2023-08-24T02:51:57;19.10;99.90
14884;DHT22;7534;50.762;7.000;2023-08-24T02:54:22;19.10;99.90
14884;DHT22;7534;50.762;7.000;2023-08-24T02:56:48;19.30;99.90
14884;DHT22;7534;50.762;7.000;2023-08-24T02:59:14;19.30;99.90
14884;DHT22;7534;50.762;7.000;2023-08-24T03:01:39;19.10;99.90
14884;DHT22;7534;50.762;7.000;2023-08-24T03:04:06;19.30;99.90
14884;DHT22;7534;50.762;7.000;2023-08-24T03:06:32;19.50;99.90
14884;DHT22;7534;50.762;7.000;2023-08-24T03:09:00;19.60;99.90
14884;DHT22;7534;50.762;7.000;2023-08-24T03:11:29;19.60;99.90
14884;DHT22;7534;50.762;7.000;2023-08-24T03:13:55;19.50;99.90
14884;DHT22;7534;50.762;7.000;2023-08-24T03:16:20;19.60;99.90
14884;DHT22;7534;50.762;7.000;2023-08-24T03:18:46;19.60;99.90
14884;DHT22;7534;50.762;7.000;2023-08-24T03:21:12;19.60;99.90
14884;DHT22;7534;50.762;7.000;2023-08-24T03:23:37;19.60;99.90
14884;DHT22;7534;50.762;7.000;2023-08-24T03:26:03;19.70;99.90
14884;DHT22;7534;50.762;7.000;2023-08-24T03:28:29;19.70;99.90
14884;DHT22;7534;50.762;7.000;2023-08-24T03:30:55;19.70;99.90
14884;DHT22;7534;50.762;7.000;2023-08-24T03:33:21;19.60;99.90
14884;DHT22;7534;50.762;7.000;2023-08-24T03:35:47;19.60;99.90
14884;DHT22;7534;50.762;7.000;2023-08-24T03:38:13;19.60;99.90
14884;DHT22;7534;50.762;7.000;2023-08-24T03:40:39;19.60;99.90
14884;DHT22;7534;50.762;7.000;2023-08-24T03:43:05;19.60;99.90
14884;DHT22;7534;50.762;7.000;2023-08-24T03:45:31;19.60;99.90
14884;DHT22;7534;50.762;7.000;2023-08-24T03:47:57;19.60;99.90
14884;DHT22;7534;50.762;7.000;2023-08-24T03:50:23;19.60;99.90
14884;DHT22;7534;50.762;7.000;2023-08-24T03:52:52;19.50;99.90
14884;DHT22;7534;50.762;7.000;2023-08-24T03:55:20;19.50;99.90
14884;DHT22;7534;50.762;7.000;2023-08-24T03:57:46;19.30;99.90
14884;DHT22;7534;50.762;7.000;2023-08-24T04:00:12;19.60;99.90
14884;DHT22;7534;50.762;7.000;2023-08-24T04:02:43;19.50;99.90
14884;DHT22;7534;50.762;7.000;2023-08-24T04:05:09;19.60;99.90
14884;DHT22;7534;50.762;7.000;2023-08-24T04:07:35;19.60;99.90
14884;DHT22;7534;50.762;7.000;2023-08-24T04:10:05;19.60;99.90
14884;DHT22;7534;50.762;7.000;2023-08-24T04:12:32;19.70;99.90
14884;DHT22;7534;50.762;7.000;2023-08-24T04:14:58;19.70;99.90
14884;DHT22;7534;50.762;7.000;2023-08-24T04:17:25;19.60;99.90
14884;DHT22;7534;50.762;7.000;2023-08-24T04:19:50;19.80;99.90
14884;DHT22;7534;50.762;7.000;2023-08-24T04:22:16;20.20;99.90
14884;DHT22;7534;50.762;7.000;2023-08-24T04:24:42;19.90;99.90
14884;DHT22;7534;50.762;7.000;2023-08-24T04:27:08;20.00;99.90
14884;DHT22;7534;50.762;7.000;2023-08-24T04:29:33;20.10;99.90
14884;DHT22;7534;50.762;7.000;2023-08-24T04:31:59;20.10;99.90
14884;DHT22;7534;50.762;7.000;2023-08-24T04:34:25;20.10;99.90
14884;DHT22;7534;50.762;7.000;2023-08-24T04:36:51;20.10;99.90
14884;DHT22;7534;50.762;7.000;2023-08-24T04:39:17;20.00;99.90
14884;DHT22;7534;50.762;7.000;2023-08-24T04:41:44;19.90;99.90
14884;DHT22;7534;50.762;7.000;2023-08-24T04:44:10;20.00;99.90
14884;DHT22;7534;50.762;7.000;2023-08-24T04:46:36;20.00;99.90
14884;DHT22;7534;50.762;7.000;2023-08-24T04:49:01;19.60;99.90
14884;DHT22;7534;50.762;7.000;2023-08-24T04:51:28;19.20;99.90
14884;DHT22;7534;50.762;7.000;2023-08-24T04:53:54;19.10;99.90
14884;DHT22;7534;50.762;7.000;2023-08-24T04:56:20;18.90;99.90
14884;DHT22;7534;50.762;7.000;2023-08-24T04:58:55;18.90;99.90
14884;DHT22;7534;50.762;7.000;2023-08-24T05:01:23;18.80;99.90
14884;DHT22;7534;50.762;7.000;2023-08-24T05:03:50;18.70;99.90
14884;DHT22;7534;50.762;7.000;2023-08-24T05:06:17;18.60;99.90
14884;DHT22;7534;50.762;7.000;2023-08-24T05:08:43;18.60;99.90
14884;DHT22;7534;50.762;7.000;2023-08-24T05:11:21;18.40;99.90
14884;DHT22;7534;50.762;7.000;2023-08-24T05:13:49;18.50;99.90
14884;DHT22;7534;50.762;7.000;2023-08-24T05:16:15;18.30;99.90
14884;DHT22;7534;50.762;7.000;2023-08-24T05:18:41;18.30;99.90
14884;DHT22;7534;50.762;7.000;2023-08-24T05:21:07;18.40;99.90
14884;DHT22;7534;50.762;7.000;2023-08-24T05:23:33;18.20;99.90
14884;DHT22;7534;50.762;7.000;2023-08-24T05:26:02;18.20;99.90
14884;DHT22;7534;50.762;7.000;2023-08-24T05:28:29;18.20;99.90
14884;DHT22;7534;50.762;7.000;2023-08-24T05:30:56;18.40;99.90
14884;DHT22;7534;50.762;7.000;2023-08-24T05:33:23;18.30;99.90
14884;DHT22;7534;50.762;7.000;2023-08-24T05:35:50;18.50;99.90
14884;DHT22;7534;50.762;7.000;2023-08-24T05:38:17;18.50;99.90
14884;DHT22;7534;50.762;7.000;2023-08-24T05:40:43;18.50;99.90
14884;DHT22;7534;50.762;7.000;2023-08-24T05:43:13;18.60;99.90
14884;DHT22;7534;50.762;7.000;2023-08-24T05:45:38;18.60;99.90
14884;DHT22;7534;50.762;7.000;2023-08-24T05:48:06;18.80;99.90
14884;DHT22;7534;50.762;7.000;2023-08-24T05:50:32;18.70;99.90
14884;DHT22;7534;50.762;7.000;2023-08-24T05:52:57;18.60;99.90
14884;DHT22;7534;50.762;7.000;2023-08-24T05:55:23;18.90;99.90
14884;DHT22;7534;50.762;7.000;2023-08-24T05:57:49;18.70;99.90
14884;DHT22;7534;50.762;7.000;2023-08-24T06:00:16;18.70;99.90
14884;DHT22;7534;50.762;7.000;2023-08-24T06:02:42;18.70;99.90
14884;DHT22;7534;50.762;7.000;2023-08-24T06:05:08;18.70;99.90
14884;DHT22;7534;50.762;7.000;2023-08-24T06:07:35;18.70;99.90
14884;DHT22;7534;50.762;7.000;2023-08-24T06:10:01;18.70;99.90
14884;DHT22;7534;50.762;7.000;2023-08-24T06:12:27;18.80;99.90
14884;DHT22;7534;50.762;7.000;2023-08-24T06:14:53;18.90;99.90
14884;DHT22;7534;50.762;7.000;2023-08-24T06:17:19;19.00;99.90
14884;DHT22;7534;50.762;7.000;2023-08-24T06:19:44;19.30;99.90
14884;DHT22;7534;50.762;7.000;2023-08-24T06:22:10;19.20;99.90
14884;DHT22;7534;50.762;7.000;2023-08-24T06:24:36;19.10;99.90
14884;DHT22;7534;50.762;7.000;2023-08-24T06:27:02;19.30;99.90
14884;DHT22;7534;50.762;7.000;2023-08-24T06:29:28;19.70;99.90
14884;DHT22;7534;50.762;7.000;2023-08-24T06:31:54;19.80;99.90
14884;DHT22;7534;50.762;7.000;2023-08-24T06:34:20;20.00;99.90
14884;DHT22;7534;50.762;7.000;2023-08-24T06:36:47;20.20;99.90
14884;DHT22;7534;50.762;7.000;2023-08-24T06:39:13;20.40;99.90
14884;DHT22;7534;50.762;7.000;2023-08-24T06:41:39;20.70;99.90
14884;DHT22;7534;50.762;7.000;2023-08-24T06:44:05;21.00;99.90
14884;DHT22;7534;50.762;7.000;2023-08-24T06:48:59;24.90;99.90
14884;DHT22;7534;50.762;7.000;2023-08-24T06:53:52;26.40;99.90
14884;DHT22;7534;50.762;7.000;2023-08-24T06:56:20;28.40;99.90
14884;DHT22;7534;50.762;7.000;2023-08-24T06:58:48;28.40;99.90
14884;DHT22;7534;50.762;7.000;2023-08-24T07:01:13;29.20;99.90
14884;DHT22;7534;50.762;7.000;2023-08-24T07:03:39;30.20;99.90
14884;DHT22;7534;50.762;7.000;2023-08-24T07:06:06;30.10;90.40
14884;DHT22;7534;50.762;7.000;2023-08-24T07:08:37;31.00;90.40
14884;DHT22;7534;50.762;7.000;2023-08-24T07:11:03;31.60;86.00
14884;DHT22;7534;50.762;7.000;2023-08-24T07:13:29;32.20;81.30
14884;DHT22;7534;50.762;7.000;2023-08-24T07:15:55;32.60;80.30
14884;DHT22;7534;50.762;7.000;2023-08-24T07:18:22;32.40;77.60
14884;DHT22;7534;50.762;7.000;2023-08-24T07:20:47;32.60;76.80
14884;DHT22;7534;50.762;7.000;2023-08-24T07:23:13;32.50;76.30
14884;DHT22;7534;50.762;7.000;2023-08-24T07:25:39;33.00;72.20
14884;DHT22;7534;50.762;7.000;2023-08-24T07:28:05;33.60;68.60
14884;DHT22;7534;50.762;7.000;2023-08-24T07:30:31;33.30;68.60
14884;DHT22;7534;50.762;7.000;2023-08-24T07:32:57;34.10;71.50
14884;DHT22;7534;50.762;7.000;2023-08-24T07:35:23;34.40;68.90
14884;DHT22;7534;50.762;7.000;2023-08-24T07:37:52;34.30;68.80
14884;DHT22;7534;50.762;7.000;2023-08-24T07:40:18;34.40;66.80
14884;DHT22;7534;50.762;7.000;2023-08-24T07:45:16;34.00;66.30
14884;DHT22;7534;50.762;7.000;2023-08-24T07:47:42;33.80;67.00
14884;DHT22;7534;50.762;7.000;2023-08-24T07:50:09;35.30;67.00
14884;DHT22;7534;50.762;7.000;2023-08-24T07:52:40;35.90;65.20
14884;DHT22;7534;50.762;7.000;2023-08-24T07:55:06;35.80;64.10
14884;DHT22;7534;50.762;7.000;2023-08-24T07:57:33;35.90;61.80
14884;DHT22;7534;50.762;7.000;2023-08-24T07:59:59;35.60;62.60
14884;DHT22;7534;50.762;7.000;2023-08-24T08:02:25;35.70;61.80
14884;DHT22;7534;50.762;7.000;2023-08-24T08:04:55;35.40;61.60
14884;DHT22;7534;50.762;7.000;2023-08-24T08:07:23;35.20;62.70
14884;DHT22;7534;50.762;7.000;2023-08-24T08:09:49;35.50;62.60
14884;DHT22;7534;50.762;7.000;2023-08-24T08:12:15;35.10;61.70
14884;DHT22;7534;50.762;7.000;2023-08-24T08:14:41;35.30;60.80
14884;DHT22;7534;50.762;7.000;2023-08-24T08:17:06;35.00;60.80
14884;DHT22;7534;50.762;7.000;2023-08-24T08:19:32;34.60;54.10
14884;DHT22;7534;50.762;7.000;2023-08-24T08:22:01;34.50;54.50
14884;DHT22;7534;50.762;7.000;2023-08-24T08:24:27;34.80;54.20
14884;DHT22;7534;50.762;7.000;2023-08-24T08:26:53;35.30;53.00
14884;DHT22;7534;50.762;7.000;2023-08-24T08:29:19;35.40;52.40
14884;DHT22;7534;50.762;7.000;2023-08-24T08:31:45;35.70;52.10
14884;DHT22;7534;50.762;7.000;2023-08-24T08:34:11;35.60;51.30
14884;DHT22;7534;50.762;7.000;2023-08-24T08:36:37;35.20;52.20
14884;DHT22;7534;50.762;7.000;2023-08-24T08:39:03;34.90;53.40
14884;DHT22;7534;50.762;7.000;2023-08-24T08:41:33;34.90;53.40
14884;DHT22;7534;50.762;7.000;2023-08-24T08:44:07;35.40;52.40
14884;DHT22;7534;50.762;7.000;2023-08-24T08:46:38;35.60;51.70
14884;DHT22;7534;50.762;7.000;2023-08-24T08:49:06;35.80;50.90
14884;DHT22;7534;50.762;7.000;2023-08-24T08:51:35;35.60;50.90
14884;DHT22;7534;50.762;7.000;2023-08-24T08:54:02;35.50;51.30
14884;DHT22;7534;50.762;7.000;2023-08-24T08:56:31;35.10;51.30
14884;DHT22;7534;50.762;7.000;2023-08-24T08:58:59;34.60;51.90
14884;DHT22;7534;50.762;7.000;2023-08-24T09:01:28;34.00;53.50
14884;DHT22;7534;50.762;7.000;2023-08-24T09:03:57;33.40;54.50
14884;DHT22;7534;50.762;7.000;2023-08-24T09:06:23;33.60;54.90
14884;DHT22;7534;50.762;7.000;2023-08-24T09:08:49;34.30;54.30
14884;DHT22;7534;50.762;7.000;2023-08-24T09:11:17;34.80;52.90
14884;DHT22;7534;50.762;7.000;2023-08-24T09:13:47;35.00;51.50
14884;DHT22;7534;50.762;7.000;2023-08-24T09:16:14;34.90;50.70
14884;DHT22;7534;50.762;7.000;2023-08-24T09:18:51;35.80;50.90
14884;DHT22;7534;50.762;7.000;2023-08-24T09:21:17;36.10;49.50
14884;DHT22;7534;50.762;7.000;2023-08-24T09:23:54;36.50;47.80
14884;DHT22;7534;50.762;7.000;2023-08-24T09:26:28;36.00;47.30
14884;DHT22;7534;50.762;7.000;2023-08-24T09:28:55;35.70;48.40
14884;DHT22;7534;50.762;7.000;2023-08-24T09:31:22;36.10;48.00
14884;DHT22;7534;50.762;7.000;2023-08-24T09:33:49;36.50;47.60
14884;DHT22;7534;50.762;7.000;2023-08-24T09:36:15;36.10;47.90
14884;DHT22;7534;50.762;7.000;2023-08-24T09:38:47;35.40;47.50
14884;DHT22;7534;50.762;7.000;2023-08-24T09:41:14;34.30;48.40
14884;DHT22;7534;50.762;7.000;2023-08-24T09:43:40;33.90;50.80
14884;DHT22;7534;50.762;7.000;2023-08-24T09:46:06;33.50;51.50
14884;DHT22;7534;50.762;7.000;2023-08-24T09:48:33;33.10;53.00
14884;DHT22;7534;50.762;7.000;2023-08-24T09:51:03;32.60;55.00
14884;DHT22;7534;50.762;7.000;2023-08-24T09:53:33;32.50;55.90
14884;DHT22;7534;50.762;7.000;2023-08-24T09:56:04;32.40;57.00
14884;DHT22;7534;50.762;7.000;2023-08-24T09:58:32;32.70;56.70
14884;DHT22;7534;50.762;7.000;2023-08-24T10:00:59;33.40;56.00
14884;DHT22;7534;50.762;7.000;2023-08-24T10:03:27;34.00;53.40
14884;DHT22;7534;50.762;7.000;2023-08-24T10:05:57;34.10;53.40
14884;DHT22;7534;50.762;7.000;2023-08-24T10:08:33;33.90;53.40
14884;DHT22;7534;50.762;7.000;2023-08-24T10:11:03;33.60;54.40
14884;DHT22;7534;50.762;7.000;2023-08-24T10:13:47;33.30;54.50
14884;DHT22;7534;50.762;7.000;2023-08-24T10:16:19;33.00;55.70
14884;DHT22;7534;50.762;7.000;2023-08-24T10:18:47;33.00;56.50
14884;DHT22;7534;50.762;7.000;2023-08-24T10:21:16;33.10;57.10
14884;DHT22;7534;50.762;7.000;2023-08-24T10:23:43;32.80;54.80
14884;DHT22;7534;50.762;7.000;2023-08-24T10:26:12;32.60;56.40
14884;DHT22;7534;50.762;7.000;2023-08-24T10:28:39;32.60;56.20
14884;DHT22;7534;50.762;7.000;2023-08-24T10:31:05;32.10;56.00
14884;DHT22;7534;50.762;7.000;2023-08-24T10:33:32;32.00;57.10
14884;DHT22;7534;50.762;7.000;2023-08-24T10:35:59;32.00;57.20
14884;DHT22;7534;50.762;7.000;2023-08-24T10:38:27;32.00;57.30
14884;DHT22;7534;50.762;7.000;2023-08-24T10:40:54;32.20;57.50
14884;DHT22;7534;50.762;7.000;2023-08-24T10:43:27;32.40;57.40
14884;DHT22;7534;50.762;7.000;2023-08-24T10:46:02;32.40;56.90
14884;DHT22;7534;50.762;7.000;2023-08-24T10:48:59;32.60;57.50
14884;DHT22;7534;50.762;7.000;2023-08-24T10:51:25;32.50;56.90
14884;DHT22;7534;50.762;7.000;2023-08-24T10:53:56;32.40;55.30
14884;DHT22;7534;50.762;7.000;2023-08-24T10:56:36;32.40;56.30
14884;DHT22;7534;50.762;7.000;2023-08-24T10:59:15;32.30;56.10
14884;DHT22;7534;50.762;7.000;2023-08-24T11:01:54;32.20;56.60
14884;DHT22;7534;50.762;7.000;2023-08-24T11:04:21;32.20;57.40
14884;DHT22;7534;50.762;7.000;2023-08-24T11:06:55;32.50;56.50
14884;DHT22;7534;50.762;7.000;2023-08-24T11:09:24;32.50;56.30
14884;DHT22;7534;50.762;7.000;2023-08-24T11:12:01;32.40;57.10
14884;DHT22;7534;50.762;7.000;2023-08-24T11:14:29;32.30;56.60
14884;DHT22;7534;50.762;7.000;2023-08-24T11:17:00;32.40;56.50
14884;DHT22;7534;50.762;7.000;2023-08-24T11:19:27;32.30;55.80
14884;DHT22;7534;50.762;7.000;2023-08-24T11:21:57;32.50;55.90
14884;DHT22;7534;50.762;7.000;2023-08-24T11:24:27;32.30;55.70
14884;DHT22;7534;50.762;7.000;2023-08-24T11:26:54;32.10;56.70
14884;DHT22;7534;50.762;7.000;2023-08-24T11:29:19;32.40;57.10
14884;DHT22;7534;50.762;7.000;2023-08-24T11:31:45;32.30;55.50
14884;DHT22;7534;50.762;7.000;2023-08-24T11:34:15;32.40;56.30
14884;DHT22;7534;50.762;7.000;2023-08-24T11:36:50;32.30;56.40
14884;DHT22;7534;50.762;7.000;2023-08-24T11:39:18;32.20;56.80
14884;DHT22;7534;50.762;7.000;2023-08-24T11:42:03;32.10;57.50
14884;DHT22;7534;50.762;7.000;2023-08-24T11:44:52;32.20;58.20
14884;DHT22;7534;50.762;7.000;2023-08-24T11:47:21;32.00;57.50
14884;DHT22;7534;50.762;7.000;2023-08-24T11:49:49;31.70;58.20
14884;DHT22;7534;50.762;7.000;2023-08-24T11:52:14;31.50;58.70
14884;DHT22;7534;50.762;7.000;2023-08-24T11:54:41;31.50;61.70
14884;DHT22;7534;50.762;7.000;2023-08-24T11:57:08;31.30;63.20
14884;DHT22;7534;50.762;7.000;2023-08-24T11:59:35;30.90;62.00
14884;DHT22;7534;50.762;7.000;2023-08-24T12:02:02;30.80;63.40
14884;DHT22;7534;50.762;7.000;2023-08-24T12:04:38;30.80;63.20
14884;DHT22;7534;50.762;7.000;2023-08-24T12:07:10;31.10;62.40
14884;DHT22;7534;50.762;7.000;2023-08-24T12:09:39;31.20;62.80
14884;DHT22;7534;50.762;7.000;2023-08-24T12:12:05;31.30;63.20
14884;DHT22;7534;50.762;7.000;2023-08-24T12:14:44;31.50;62.60
14884;DHT22;7534;50.762;7.000;2023-08-24T12:17:12;31.70;65.30
14884;DHT22;7534;50.762;7.000;2023-08-24T12:20:00;31.80;62.00
14884;DHT22;7534;50.762;7.000;2023-08-24T12:22:31;31.70;63.30
14884;DHT22;7534;50.762;7.000;2023-08-24T12:24:57;31.50;64.10
14884;DHT22;7534;50.762;7.000;2023-08-24T12:27:24;31.40;65.90
14884;DHT22;7534;50.762;7.000;2023-08-24T12:29:51;31.40;66.20
14884;DHT22;7534;50.762;7.000;2023-08-24T12:32:19;31.10;68.40
14884;DHT22;7534;50.762;7.000;2023-08-24T12:34:48;30.70;71.10
14884;DHT22;7534;50.762;7.000;2023-08-24T12:37:14;30.00;76.00
14884;DHT22;7534;50.762;7.000;2023-08-24T12:39:41;29.40;81.80
14884;DHT22;7534;50.762;7.000;2023-08-24T12:42:08;28.90;87.90
14884;DHT22;7534;50.762;7.000;2023-08-24T12:44:34;28.40;91.40
14884;DHT22;7534;50.762;7.000;2023-08-24T12:47:01;27.90;92.60
14884;DHT22;7534;50.762;7.000;2023-08-24T12:49:28;27.50;93.90
14884;DHT22;7534;50.762;7.000;2023-08-24T12:51:55;27.30;95.50
14884;DHT22;7534;50.762;7.000;2023-08-24T12:54:21;27.40;96.90
14884;DHT22;7534;50.762;7.000;2023-08-24T12:56:49;27.40;97.20
14884;DHT22;7534;50.762;7.000;2023-08-24T12:59:15;27.30;97.90
14884;DHT22;7534;50.762;7.000;2023-08-24T13:01:40;27.10;98.20
14884;DHT22;7534;50.762;7.000;2023-08-24T13:04:07;26.70;99.40
14884;DHT22;7534;50.762;7.000;2023-08-24T13:06:33;26.40;99.90
14884;DHT22;7534;50.762;7.000;2023-08-24T13:09:00;26.00;99.90
14884;DHT22;7534;50.762;7.000;2023-08-24T13:11:27;25.90;99.90
14884;DHT22;7534;50.762;7.000;2023-08-24T13:13:53;25.70;99.90
14884;DHT22;7534;50.762;7.000;2023-08-24T13:16:18;25.50;99.90
14884;DHT22;7534;50.762;7.000;2023-08-24T13:18:44;25.50;99.90
14884;DHT22;7534;50.762;7.000;2023-08-24T13:21:10;25.50;99.90
14884;DHT22;7534;50.762;7.000;2023-08-24T13:23:37;25.60;99.90
14884;DHT22;7534;50.762;7.000;2023-08-24T13:26:02;25.50;99.90
14884;DHT22;7534;50.762;7.000;2023-08-24T13:28:28;25.30;99.90
14884;DHT22;7534;50.762;7.000;2023-08-24T13:30:55;25.20;99.90
14884;DHT22;7534;50.762;7.000;2023-08-24T13:33:20;25.20;99.90
14884;DHT22;7534;50.762;7.000;2023-08-24T13:35:46;25.30;99.90
14884;DHT22;7534;50.762;7.000;2023-08-24T13:38:13;25.20;99.90
14884;DHT22;7534;50.762;7.000;2023-08-24T13:40:39;24.90;99.90
14884;DHT22;7534;50.762;7.000;2023-08-24T13:43:07;24.80;99.90
14884;DHT22;7534;50.762;7.000;2023-08-24T13:45:33;24.60;99.90
14884;DHT22;7534;50.762;7.000;2023-08-24T13:48:02;24.50;99.90
14884;DHT22;7534;50.762;7.000;2023-08-24T13:50:27;24.60;99.90
14884;DHT22;7534;50.762;7.000;2023-08-24T13:52:53;24.60;99.90
14884;DHT22;7534;50.762;7.000;2023-08-24T13:55:21;24.60;99.90
14884;DHT22;7534;50.762;7.000;2023-08-24T13:57:47;24.80;99.90
14884;DHT22;7534;50.762;7.000;2023-08-24T14:00:13;25.20;99.90
14884;DHT22;7534;50.762;7.000;2023-08-24T14:02:39;25.30;99.90
14884;DHT22;7534;50.762;7.000;2023-08-24T14:05:05;25.70;99.90
14884;DHT22;7534;50.762;7.000;2023-08-24T14:07:34;25.80;99.90
14884;DHT22;7534;50.762;7.000;2023-08-24T14:10:01;25.90;99.90
14884;DHT22;7534;50.762;7.000;2023-08-24T14:12:27;25.80;99.90
14884;DHT22;7534;50.762;7.000;2023-08-24T14:14:53;25.80;99.90
14884;DHT22;7534;50.762;7.000;2023-08-24T14:17:19;25.60;99.90
14884;DHT22;7534;50.762;7.000;2023-08-24T14:19:44;25.50;99.90
14884;DHT22;7534;50.762;7.000;2023-08-24T14:22:10;25.20;99.90
14884;DHT22;7534;50.762;7.000;2023-08-24T14:24:36;25.20;99.90
14884;DHT22;7534;50.762;7.000;2023-08-24T14:27:02;25.20;99.90
14884;DHT22;7534;50.762;7.000;2023-08-24T14:29:28;25.40;99.90
14884;DHT22;7534;50.762;7.000;2023-08-24T14:31:53;25.50;99.90
14884;DHT22;7534;50.762;7.000;2023-08-24T14:34:19;25.70;99.90
14884;DHT22;7534;50.762;7.000;2023-08-24T14:36:45;25.60;99.90
14884;DHT22;7534;50.762;7.000;2023-08-24T14:39:10;25.80;99.90
14884;DHT22;7534;50.762;7.000;2023-08-24T14:41:36;25.70;99.90
14884;DHT22;7534;50.762;7.000;2023-08-24T14:44:02;25.70;99.90
14884;DHT22;7534;50.762;7.000;2023-08-24T14:46:28;25.70;99.90
14884;DHT22;7534;50.762;7.000;2023-08-24T14:48:53;25.50;99.90
14884;DHT22;7534;50.762;7.000;2023-08-24T14:51:19;25.40;99.90
14884;DHT22;7534;50.762;7.000;2023-08-24T14:53:45;25.10;99.90
14884;DHT22;7534;50.762;7.000;2023-08-24T14:56:10;24.90;99.90
14884;DHT22;7534;50.762;7.000;2023-08-24T14:58:36;24.70;99.90
14884;DHT22;7534;50.762;7.000;2023-08-24T15:01:02;24.60;99.90
14884;DHT22;7534;50.762;7.000;2023-08-24T15:03:28;24.40;99.90
14884;DHT22;7534;50.762;7.000;2023-08-24T15:06:04;24.10;99.90
14884;DHT22;7534;50.762;7.000;2023-08-24T15:08:31;24.00;99.90
14884;DHT22;7534;50.762;7.000;2023-08-24T15:10:59;23.80;99.90
14884;DHT22;7534;50.762;7.000;2023-08-24T15:13:29;23.60;99.90
14884;DHT22;7534;50.762;7.000;2023-08-24T15:15:57;23.60;99.90
14884;DHT22;7534;50.762;7.000;2023-08-24T15:18:24;23.40;99.90
14884;DHT22;7534;50.762;7.000;2023-08-24T15:20:51;23.40;99.90
14884;DHT22;7534;50.762;7.000;2023-08-24T15:23:30;23.20;99.90
14884;DHT22;7534;50.762;7.000;2023-08-24T15:25:58;23.10;99.90
14884;DHT22;7534;50.762;7.000;2023-08-24T15:28:25;22.90;99.90
14884;DHT22;7534;50.762;7.000;2023-08-24T15:30:51;22.70;99.90
14884;DHT22;7534;50.762;7.000;2023-08-24T15:33:18;22.60;99.90
14884;DHT22;7534;50.762;7.000;2023-08-24T15:35:45;22.30;99.90
14884;DHT22;7534;50.762;7.000;2023-08-24T15:38:11;22.10;99.90
14884;DHT22;7534;50.762;7.000;2023-08-24T15:40:38;22.00;99.90
14884;DHT22;7534;50.762;7.000;2023-08-24T15:43:05;21.80;99.90
14884;DHT22;7534;50.762;7.000;2023-08-24T15:45:32;21.70;99.90
14884;DHT22;7534;50.762;7.000;2023-08-24T15:47:59;21.50;99.90
14884;DHT22;7534;50.762;7.000;2023-08-24T15:50:26;21.40;99.90
14884;DHT22;7534;50.762;7.000;2023-08-24T15:52:52;21.40;99.90
14884;DHT22;7534;50.762;7.000;2023-08-24T15:55:32;21.30;99.90